createdAt,value
2019-03-31T00:01:07.328Z,53.80
2019-03-31T00:01:54.431Z,55.80
2019-03-31T00:02:53.398Z,59.20
2019-03-31T00:03:53.389Z,53.50
2019-03-31T00:04:53.379Z,52.30
2019-03-31T00:05:53.427Z,52.90
2019-03-31T00:06:53.368Z,52.20
2019-03-31T00:07:53.357Z,49.20
2019-03-31T00:08:53.358Z,49.00
2019-03-31T00:09:53.339Z,53.20
2019-03-31T00:10:53.326Z,55.00
2019-03-31T00:11:53.348Z,47.60
2019-03-31T00:12:53.296Z,54.00
2019-03-31T00:13:53.286Z,55.00
2019-03-31T00:14:53.268Z,52.90
2019-03-31T00:15:53.271Z,49.80
2019-03-31T00:16:53.310Z,54.20
2019-03-31T00:17:53.237Z,54.80
2019-03-31T00:18:53.228Z,54.40
2019-03-31T00:19:53.228Z,50.50
2019-03-31T00:20:53.208Z,53.90
2019-03-31T00:21:53.241Z,57.10
2019-03-31T00:22:53.221Z,49.20
2019-03-31T00:23:53.177Z,55.80
2019-03-31T00:24:53.678Z,52.20
2019-03-31T00:25:53.171Z,51.00
2019-03-31T00:26:53.149Z,56.60
2019-03-31T00:27:53.168Z,48.30
2019-03-31T00:28:53.141Z,50.20
2019-03-31T00:29:53.109Z,51.00
2019-03-31T00:30:53.120Z,46.60
2019-03-31T00:31:53.102Z,52.30
2019-03-31T00:32:53.102Z,50.50
2019-03-31T00:33:53.076Z,50.70
2019-03-31T00:34:53.058Z,46.80
2019-03-31T00:35:53.048Z,56.20
2019-03-31T00:36:53.029Z,54.70
2019-03-31T00:37:53.029Z,48.30
2019-03-31T00:38:53.052Z,60.80
2019-03-31T00:39:53.009Z,49.40
2019-03-31T00:40:53.002Z,48.10
2019-03-31T00:41:53.020Z,49.50
2019-03-31T00:42:52.982Z,51.50
2019-03-31T00:43:52.990Z,54.50
2019-03-31T00:44:52.962Z,51.30
2019-03-31T00:45:52.949Z,51.10
2019-03-31T00:46:52.969Z,49.50
2019-03-31T00:47:52.919Z,46.50
2019-03-31T00:48:52.910Z,50.10
2019-03-31T00:49:52.889Z,48.70
2019-03-31T00:50:52.889Z,44.40
2019-03-31T00:51:52.957Z,49.30
2019-03-31T00:52:52.868Z,48.50
2019-03-31T00:53:52.859Z,47.20
2019-03-31T00:54:52.852Z,45.00
2019-03-31T00:55:52.829Z,42.70
2019-03-31T00:56:52.850Z,43.40
2019-03-31T00:57:52.809Z,46.70
2019-03-31T00:58:52.800Z,50.30
2019-03-31T00:59:52.789Z,46.20
2019-03-31T01:00:52.792Z,46.30
2019-03-31T01:01:52.872Z,43.90
2019-03-31T01:02:52.760Z,45.10
2019-03-31T01:03:52.739Z,44.10
2019-03-31T01:04:52.730Z,43.00
2019-03-31T01:05:52.729Z,41.60
2019-03-31T01:06:52.710Z,44.30
2019-03-31T01:07:52.739Z,44.60
2019-03-31T01:08:52.712Z,45.90
2019-03-31T01:09:52.693Z,46.70
2019-03-31T01:10:52.670Z,46.60
2019-03-31T01:11:52.652Z,43.20
2019-03-31T01:12:52.646Z,47.00
2019-03-31T01:13:52.723Z,44.80
2019-03-31T01:14:52.646Z,44.70
2019-03-31T01:15:52.620Z,41.10
2019-03-31T01:16:52.610Z,42.00
2019-03-31T01:17:52.594Z,44.00
2019-03-31T01:18:52.646Z,47.00
2019-03-31T01:19:52.592Z,43.40
2019-03-31T01:20:52.570Z,45.90
2019-03-31T01:21:52.550Z,49.20
2019-03-31T01:22:52.553Z,45.90
2019-03-31T01:23:52.530Z,49.40
2019-03-31T01:24:52.606Z,47.40
2019-03-31T01:25:52.512Z,42.50
2019-03-31T01:26:52.500Z,43.80
2019-03-31T01:27:52.490Z,43.20
2019-03-31T01:28:52.480Z,39.90
2019-03-31T01:29:52.540Z,46.00
2019-03-31T01:30:52.452Z,38.20
2019-03-31T01:31:52.451Z,45.50
2019-03-31T01:32:52.430Z,48.00
2019-03-31T01:33:52.420Z,45.70
2019-03-31T01:34:52.419Z,42.30
2019-03-31T01:35:52.474Z,41.90
2019-03-31T01:36:52.451Z,50.10
2019-03-31T01:37:52.392Z,45.00
2019-03-31T01:38:52.363Z,43.30
2019-03-31T01:39:52.362Z,43.30
2019-03-31T01:40:52.411Z,49.50
2019-03-31T01:41:52.331Z,42.00
2019-03-31T01:42:52.321Z,46.80
2019-03-31T01:43:52.311Z,45.70
2019-03-31T01:44:52.301Z,47.30
2019-03-31T01:45:52.290Z,44.30
2019-03-31T01:46:52.334Z,49.30
2019-03-31T01:47:52.271Z,42.30
2019-03-31T01:48:52.251Z,45.10
2019-03-31T01:49:52.252Z,47.00
2019-03-31T01:50:52.242Z,45.90
2019-03-31T01:51:52.282Z,45.40
2019-03-31T01:52:52.219Z,48.10
2019-03-31T01:53:52.201Z,42.70
2019-03-31T01:54:52.201Z,44.60
2019-03-31T01:55:52.191Z,44.40
2019-03-31T01:56:52.173Z,46.00
2019-03-31T01:57:52.185Z,47.80
2019-03-31T01:58:52.152Z,46.10
2019-03-31T01:59:52.131Z,48.10
2019-03-31T02:00:52.132Z,48.20
2019-03-31T02:02:03.539Z,44.10
2019-03-31T02:02:53.102Z,47.50
2019-03-31T02:03:52.092Z,42.50
2019-03-31T02:04:52.122Z,47.30
2019-03-31T02:05:52.074Z,42.80
2019-03-31T02:06:52.075Z,44.20
2019-03-31T02:07:52.054Z,46.20
2019-03-31T02:08:52.041Z,42.50
2019-03-31T02:09:52.033Z,48.90
2019-03-31T02:10:52.052Z,48.10
2019-03-31T02:11:52.013Z,47.40
2019-03-31T02:12:52.005Z,49.80
2019-03-31T02:13:51.982Z,46.50
2019-03-31T02:14:51.972Z,44.30
2019-03-31T02:15:51.975Z,46.00
2019-03-31T02:16:52.011Z,50.40
2019-03-31T02:17:51.955Z,47.00
2019-03-31T02:18:51.944Z,45.10
2019-03-31T02:19:51.922Z,45.20
2019-03-31T02:20:51.925Z,43.80
2019-03-31T02:21:51.954Z,45.70
2019-03-31T02:22:51.895Z,46.30
2019-03-31T02:23:51.872Z,46.60
2019-03-31T02:24:51.862Z,46.30
2019-03-31T02:25:51.865Z,39.90
2019-03-31T02:26:51.845Z,43.50
2019-03-31T02:27:51.885Z,44.70
2019-03-31T02:28:51.878Z,49.10
2019-03-31T02:29:51.813Z,49.70
2019-03-31T02:30:51.803Z,44.60
2019-03-31T02:31:51.796Z,46.40
2019-03-31T02:32:51.844Z,44.80
2019-03-31T02:33:51.774Z,43.90
2019-03-31T02:34:51.766Z,45.40
2019-03-31T02:35:51.746Z,45.70
2019-03-31T02:36:51.734Z,45.80
2019-03-31T02:37:51.736Z,45.30
2019-03-31T02:38:51.752Z,47.30
2019-03-31T02:39:51.782Z,44.50
2019-03-31T02:40:51.774Z,41.30
2019-03-31T02:41:51.693Z,43.60
2019-03-31T02:42:51.678Z,49.30
2019-03-31T02:43:51.664Z,46.90
2019-03-31T02:44:51.673Z,44.20
2019-03-31T02:45:51.653Z,42.10
2019-03-31T02:46:51.686Z,44.70
2019-03-31T02:47:51.637Z,44.90
2019-03-31T02:48:51.626Z,44.20
2019-03-31T02:49:51.613Z,44.10
2019-03-31T02:50:51.584Z,42.00
2019-03-31T02:51:51.635Z,49.60
2019-03-31T02:52:51.557Z,46.80
2019-03-31T02:53:51.553Z,43.40
2019-03-31T02:54:51.534Z,45.70
2019-03-31T02:55:51.562Z,48.60
2019-03-31T02:56:51.594Z,45.30
2019-03-31T02:57:51.562Z,44.30
2019-03-31T02:58:51.515Z,42.10
2019-03-31T02:59:51.507Z,50.50
2019-03-31T03:00:51.476Z,44.20
2019-03-31T03:01:51.473Z,51.40
2019-03-31T03:02:51.470Z,47.80
2019-03-31T03:03:51.465Z,44.90
2019-03-31T03:04:51.424Z,53.40
2019-03-31T03:05:51.427Z,48.10
2019-03-31T03:06:51.413Z,47.90
2019-03-31T03:07:51.411Z,46.70
2019-03-31T03:08:51.433Z,51.90
2019-03-31T03:09:51.374Z,52.50
2019-03-31T03:10:51.365Z,41.90
2019-03-31T03:11:51.374Z,49.90
2019-03-31T03:12:51.343Z,46.00
2019-03-31T03:13:51.388Z,47.70
2019-03-31T03:14:51.363Z,50.20
2019-03-31T03:15:51.313Z,47.90
2019-03-31T03:16:51.310Z,48.60
2019-03-31T03:17:51.405Z,47.20
2019-03-31T03:18:51.357Z,48.40
2019-03-31T03:19:51.273Z,44.40
2019-03-31T03:20:51.334Z,49.10
2019-03-31T03:21:51.258Z,48.80
2019-03-31T03:22:51.224Z,47.90
2019-03-31T03:23:51.226Z,48.60
2019-03-31T03:24:51.238Z,46.40
2019-03-31T03:25:56.556Z,50.60
2019-03-31T03:26:52.246Z,49.50
2019-03-31T03:27:51.187Z,48.80
2019-03-31T03:28:51.176Z,50.60
2019-03-31T03:29:51.170Z,47.30
2019-03-31T03:30:51.213Z,48.90
2019-03-31T03:31:51.202Z,52.40
2019-03-31T03:33:13.387Z,46.70
2019-03-31T03:33:52.135Z,46.10
2019-03-31T03:34:51.105Z,51.20
2019-03-31T03:35:51.090Z,39.50
2019-03-31T03:36:51.074Z,51.10
2019-03-31T03:37:51.104Z,50.40
2019-03-31T03:38:51.113Z,41.40
2019-03-31T03:39:51.058Z,46.90
2019-03-31T03:40:51.035Z,43.20
2019-03-31T03:41:51.025Z,40.90
2019-03-31T03:42:51.028Z,44.80
2019-03-31T03:43:55.655Z,44.80
2019-03-31T03:44:51.987Z,44.80
2019-03-31T03:45:50.985Z,43.80
2019-03-31T03:46:50.964Z,45.40
2019-03-31T03:47:50.963Z,40.90
2019-03-31T03:48:51.021Z,45.00
2019-03-31T03:49:51.014Z,47.80
2019-03-31T03:50:50.950Z,47.00
2019-03-31T03:51:50.914Z,46.60
2019-03-31T03:52:50.905Z,45.00
2019-03-31T03:53:50.894Z,47.50
2019-03-31T03:54:50.954Z,45.60
2019-03-31T03:55:50.872Z,42.80
2019-03-31T03:56:50.855Z,48.60
2019-03-31T03:57:50.854Z,52.30
2019-03-31T03:58:50.835Z,55.40
2019-03-31T03:59:50.887Z,51.50
2019-03-31T04:00:50.832Z,50.20
2019-03-31T04:01:50.809Z,47.30
2019-03-31T04:02:50.796Z,47.50
2019-03-31T04:03:50.776Z,45.30
2019-03-31T04:04:50.787Z,47.50
2019-03-31T04:05:50.781Z,46.40
2019-03-31T04:06:50.774Z,50.30
2019-03-31T04:07:50.746Z,49.40
2019-03-31T04:08:50.732Z,46.30
2019-03-31T04:09:50.738Z,42.70
2019-03-31T04:10:50.749Z,46.00
2019-03-31T04:11:50.720Z,42.70
2019-03-31T04:12:50.704Z,43.80
2019-03-31T04:13:50.700Z,44.60
2019-03-31T04:14:50.695Z,46.90
2019-03-31T04:15:50.708Z,43.20
2019-03-31T04:16:50.669Z,49.60
2019-03-31T04:17:50.630Z,43.30
2019-03-31T04:18:50.660Z,45.70
2019-03-31T04:19:50.618Z,46.30
2019-03-31T04:20:50.612Z,51.20
2019-03-31T04:21:50.602Z,41.00
2019-03-31T04:22:50.588Z,45.90
2019-03-31T04:23:50.596Z,42.60
2019-03-31T04:24:50.599Z,44.60
2019-03-31T04:25:50.561Z,40.90
2019-03-31T04:26:50.542Z,44.40
2019-03-31T04:27:50.579Z,40.60
2019-03-31T04:28:50.525Z,44.80
2019-03-31T04:29:50.524Z,42.80
2019-03-31T04:30:50.497Z,44.50
2019-03-31T04:31:50.483Z,38.10
2019-03-31T04:32:50.550Z,38.50
2019-03-31T04:33:52.851Z,41.60
2019-03-31T04:34:50.466Z,39.90
2019-03-31T04:35:50.440Z,41.70
2019-03-31T04:36:50.435Z,41.70
2019-03-31T04:37:50.496Z,45.00
2019-03-31T04:38:50.424Z,41.70
2019-03-31T04:39:50.392Z,45.90
2019-03-31T04:40:50.392Z,50.10
2019-03-31T04:41:50.367Z,44.70
2019-03-31T04:42:50.362Z,43.60
2019-03-31T04:43:50.427Z,42.70
2019-03-31T04:44:50.335Z,49.30
2019-03-31T04:45:50.375Z,47.80
2019-03-31T04:46:50.319Z,49.90
2019-03-31T04:47:50.301Z,47.70
2019-03-31T04:48:50.300Z,51.90
2019-03-31T04:49:50.285Z,53.60
2019-03-31T04:50:52.018Z,47.30
2019-03-31T04:51:50.325Z,46.20
2019-03-31T04:52:50.250Z,47.50
2019-03-31T04:53:50.233Z,49.90
2019-03-31T04:54:50.260Z,44.20
2019-03-31T04:55:50.299Z,46.50
2019-03-31T04:56:50.209Z,50.10
2019-03-31T04:57:50.185Z,50.00
2019-03-31T04:58:50.176Z,48.30
2019-03-31T04:59:50.176Z,52.50
2019-03-31T05:00:50.195Z,54.70
2019-03-31T05:01:50.181Z,52.30
2019-03-31T05:02:50.151Z,53.50
2019-03-31T05:04:03.864Z,51.90
2019-03-31T05:04:51.106Z,53.30
2019-03-31T05:05:50.123Z,56.40
2019-03-31T05:06:50.126Z,56.50
2019-03-31T05:07:50.089Z,56.60
2019-03-31T05:08:50.075Z,55.00
2019-03-31T05:09:50.065Z,53.10
2019-03-31T05:10:50.125Z,55.40
2019-03-31T05:11:50.065Z,54.20
2019-03-31T05:12:50.118Z,54.70
2019-03-31T05:13:50.018Z,59.20
2019-03-31T05:14:50.005Z,55.90
2019-03-31T05:15:49.987Z,49.50
2019-03-31T05:16:50.016Z,56.10
2019-03-31T05:17:49.965Z,51.30
2019-03-31T05:18:49.957Z,60.80
2019-03-31T05:19:49.956Z,54.30
2019-03-31T05:20:49.945Z,55.20
2019-03-31T05:21:49.925Z,58.00
2019-03-31T05:22:52.707Z,58.70
2019-03-31T05:23:49.908Z,53.40
2019-03-31T05:24:49.947Z,47.40
2019-03-31T05:25:49.887Z,49.50
2019-03-31T05:26:49.895Z,46.60
2019-03-31T05:27:49.944Z,46.40
2019-03-31T05:28:49.866Z,44.50
2019-03-31T05:29:49.846Z,51.20
2019-03-31T05:30:49.846Z,49.20
2019-03-31T05:31:49.815Z,48.30
2019-03-31T05:32:49.815Z,47.80
2019-03-31T05:33:49.846Z,46.50
2019-03-31T05:34:49.786Z,48.10
2019-03-31T05:35:49.779Z,42.90
2019-03-31T05:36:49.786Z,40.20
2019-03-31T05:37:51.199Z,47.20
2019-03-31T05:38:49.745Z,43.20
2019-03-31T05:39:49.726Z,41.90
2019-03-31T05:40:49.732Z,40.00
2019-03-31T05:41:49.717Z,38.10
2019-03-31T05:42:49.709Z,38.90
2019-03-31T05:43:49.716Z,34.90
2019-03-31T05:44:49.686Z,33.50
2019-03-31T05:45:52.358Z,38.30
2019-03-31T05:46:49.677Z,38.90
2019-03-31T05:47:49.653Z,41.00
2019-03-31T05:48:49.647Z,35.50
2019-03-31T05:49:49.659Z,37.40
2019-03-31T05:50:49.626Z,34.00
2019-03-31T05:51:49.605Z,34.70
2019-03-31T05:52:49.595Z,37.80
2019-03-31T05:53:49.576Z,35.40
2019-03-31T05:54:49.616Z,35.40
2019-03-31T05:55:49.564Z,36.00
2019-03-31T05:56:49.557Z,38.40
2019-03-31T05:57:49.547Z,40.90
2019-03-31T05:58:49.527Z,38.20
2019-03-31T05:59:49.506Z,36.80
2019-03-31T06:00:49.558Z,38.40
2019-03-31T06:01:49.496Z,39.40
2019-03-31T06:02:49.476Z,41.60
2019-03-31T06:03:49.466Z,34.90
2019-03-31T06:04:49.469Z,35.70
2019-03-31T06:05:49.486Z,33.50
2019-03-31T06:06:49.458Z,36.90
2019-03-31T06:07:49.428Z,34.10
2019-03-31T06:08:49.423Z,34.60
2019-03-31T06:09:49.405Z,37.40
2019-03-31T06:10:49.477Z,34.30
2019-03-31T06:11:49.399Z,32.40
2019-03-31T06:12:49.465Z,33.20
2019-03-31T06:13:49.358Z,33.80
2019-03-31T06:14:49.346Z,31.60
2019-03-31T06:15:49.347Z,30.20
2019-03-31T06:16:49.406Z,34.70
2019-03-31T06:17:49.325Z,36.30
2019-03-31T06:18:49.318Z,31.60
2019-03-31T06:19:49.328Z,32.30
2019-03-31T06:20:49.277Z,33.50
2019-03-31T06:21:49.270Z,30.50
2019-03-31T06:22:49.348Z,33.10
2019-03-31T06:23:49.276Z,30.40
2019-03-31T06:24:49.246Z,30.50
2019-03-31T06:25:49.243Z,31.40
2019-03-31T06:26:49.229Z,27.70
2019-03-31T06:27:49.246Z,30.20
2019-03-31T06:28:49.236Z,28.80
2019-03-31T06:29:49.187Z,32.60
2019-03-31T06:30:49.177Z,28.70
2019-03-31T06:31:49.158Z,27.60
2019-03-31T06:32:49.157Z,24.90
2019-03-31T06:33:49.226Z,25.60
2019-03-31T06:34:49.136Z,31.00
2019-03-31T06:35:49.144Z,29.20
2019-03-31T06:36:49.118Z,24.30
2019-03-31T06:37:49.147Z,28.50
2019-03-31T06:38:49.085Z,28.70
2019-03-31T06:39:49.075Z,28.50
2019-03-31T06:40:49.130Z,23.40
2019-03-31T06:41:49.134Z,28.30
2019-03-31T06:42:49.036Z,25.20
2019-03-31T06:43:49.036Z,22.10
2019-03-31T06:44:49.097Z,31.70
2019-03-31T06:45:49.019Z,19.70
2019-03-31T06:46:48.996Z,23.50
2019-03-31T06:47:48.998Z,24.60
2019-03-31T06:48:49.057Z,20.30
2019-03-31T06:49:48.982Z,21.50
2019-03-31T06:50:48.958Z,23.60
2019-03-31T06:51:48.945Z,24.90
2019-03-31T06:52:48.929Z,27.00
2019-03-31T06:53:48.977Z,23.40
2019-03-31T06:54:48.906Z,26.70
2019-03-31T06:55:48.907Z,19.10
2019-03-31T06:56:48.888Z,21.80
2019-03-31T06:57:48.909Z,23.20
2019-03-31T06:58:48.875Z,23.70
2019-03-31T06:59:48.887Z,21.50
2019-03-31T07:00:48.887Z,24.50
2019-03-31T07:01:48.850Z,21.90
2019-03-31T07:02:48.829Z,22.70
2019-03-31T07:03:48.821Z,22.90
2019-03-31T07:05:00.435Z,20.90
2019-03-31T07:05:49.797Z,20.90
2019-03-31T07:06:48.777Z,19.80
2019-03-31T07:07:48.766Z,21.10
2019-03-31T07:08:48.757Z,20.10
2019-03-31T07:09:48.746Z,20.50
2019-03-31T07:10:48.778Z,20.20
2019-03-31T07:11:48.725Z,23.80
2019-03-31T07:12:48.791Z,22.20
2019-03-31T07:13:48.707Z,20.70
2019-03-31T07:14:48.697Z,18.10
2019-03-31T07:15:48.737Z,20.90
2019-03-31T07:16:48.678Z,22.80
2019-03-31T07:17:48.749Z,23.00
2019-03-31T07:18:48.706Z,18.90
2019-03-31T07:19:48.661Z,21.70
2019-03-31T07:20:48.628Z,17.00
2019-03-31T07:21:48.618Z,19.10
2019-03-31T07:22:48.701Z,18.50
2019-03-31T07:23:48.598Z,21.50
2019-03-31T07:24:48.588Z,19.00
2019-03-31T07:25:48.569Z,14.90
2019-03-31T07:26:48.558Z,14.90
2019-03-31T07:27:48.613Z,20.00
2019-03-31T07:28:48.661Z,16.50
2019-03-31T07:29:48.535Z,20.60
2019-03-31T07:30:48.531Z,16.70
2019-03-31T07:31:48.517Z,16.90
2019-03-31T07:32:48.507Z,18.40
2019-03-31T07:33:48.501Z,19.40
2019-03-31T07:34:48.523Z,17.70
2019-03-31T07:35:48.479Z,20.10
2019-03-31T07:36:48.470Z,18.60
2019-03-31T07:37:48.448Z,15.50
2019-03-31T07:38:48.548Z,16.60
2019-03-31T07:39:48.729Z,18.50
2019-03-31T07:40:48.471Z,13.60
2019-03-31T07:41:48.484Z,18.40
2019-03-31T07:42:51.101Z,13.20
2019-03-31T07:43:55.489Z,13.80
2019-03-31T07:44:48.375Z,11.70
2019-03-31T07:45:48.414Z,11.50
2019-03-31T07:46:48.403Z,15.30
2019-03-31T07:47:48.336Z,13.00
2019-03-31T07:48:48.325Z,12.60
2019-03-31T07:49:48.328Z,13.20
2019-03-31T07:50:48.315Z,13.10
2019-03-31T07:51:48.345Z,15.20
2019-03-31T07:52:48.287Z,12.40
2019-03-31T07:53:48.264Z,11.10
2019-03-31T07:54:48.265Z,11.10
2019-03-31T07:55:48.268Z,10.90
2019-03-31T07:56:48.245Z,8.10
2019-03-31T07:57:48.268Z,9.50
2019-03-31T07:58:48.262Z,9.60
2019-03-31T07:59:48.228Z,10.10
2019-03-31T08:00:48.220Z,11.70
2019-03-31T08:01:48.185Z,11.30
2019-03-31T08:02:48.244Z,11.00
2019-03-31T08:03:48.228Z,9.70
2019-03-31T08:04:48.158Z,11.40
2019-03-31T08:05:48.158Z,15.10
2019-03-31T08:06:48.209Z,8.20
2019-03-31T08:07:48.195Z,9.40
2019-03-31T08:08:48.113Z,9.30
2019-03-31T08:09:48.095Z,10.10
2019-03-31T08:10:48.085Z,7.80
2019-03-31T08:11:48.078Z,8.80
2019-03-31T08:12:48.066Z,6.20
2019-03-31T08:13:48.119Z,6.00
2019-03-31T08:14:48.064Z,6.30
2019-03-31T08:15:48.026Z,7.50
2019-03-31T08:16:48.026Z,7.90
2019-03-31T08:17:48.020Z,9.50
2019-03-31T08:18:47.996Z,9.60
2019-03-31T08:19:48.036Z,5.80
2019-03-31T08:20:47.986Z,6.00
2019-03-31T08:21:47.967Z,6.10
2019-03-31T08:22:47.957Z,6.70
2019-03-31T08:23:47.960Z,9.00
2019-03-31T08:24:48.020Z,8.50
2019-03-31T08:25:47.998Z,5.70
2019-03-31T08:26:47.918Z,7.40
2019-03-31T08:27:47.937Z,7.30
2019-03-31T08:28:47.887Z,9.20
2019-03-31T08:29:55.628Z,10.50
2019-03-31T08:30:48.867Z,7.70
2019-03-31T08:31:47.860Z,5.20
2019-03-31T08:32:47.888Z,6.30
2019-03-31T08:33:47.868Z,6.10
2019-03-31T08:34:47.827Z,8.00
2019-03-31T08:35:48.039Z,6.40
2019-03-31T08:36:47.798Z,6.80
2019-03-31T08:37:47.809Z,6.80
2019-03-31T08:38:47.858Z,9.80
2019-03-31T08:39:47.781Z,7.40
2019-03-31T08:40:47.761Z,8.80
2019-03-31T08:41:47.747Z,6.90
2019-03-31T08:42:47.741Z,7.50
2019-03-31T08:43:47.731Z,7.40
2019-03-31T08:44:47.738Z,6.30
2019-03-31T08:45:47.742Z,7.30
2019-03-31T08:46:47.693Z,8.60
2019-03-31T08:47:47.690Z,8.00
2019-03-31T08:48:47.668Z,6.10
2019-03-31T08:49:47.658Z,8.30
2019-03-31T08:50:47.691Z,5.20
2019-03-31T08:51:47.630Z,6.80
2019-03-31T08:52:47.619Z,9.70
2019-03-31T08:53:47.610Z,11.00
2019-03-31T08:54:47.611Z,8.00
2019-03-31T08:55:47.606Z,10.40
2019-03-31T08:56:47.618Z,7.40
2019-03-31T08:57:47.583Z,5.80
2019-03-31T08:58:47.639Z,5.90
2019-03-31T08:59:47.554Z,7.20
2019-03-31T09:00:47.575Z,7.40
2019-03-31T09:01:47.531Z,5.80
2019-03-31T09:02:47.519Z,6.40
2019-03-31T09:03:47.504Z,5.70
2019-03-31T09:04:47.571Z,7.10
2019-03-31T09:06:00.612Z,5.10
2019-03-31T09:06:48.481Z,5.80
2019-03-31T09:07:47.460Z,6.00
2019-03-31T09:08:47.441Z,6.30
2019-03-31T09:09:47.433Z,3.50
2019-03-31T09:10:47.510Z,6.60
2019-03-31T09:11:47.414Z,7.10
2019-03-31T09:12:48.600Z,6.80
2019-03-31T09:13:47.392Z,6.70
2019-03-31T09:14:47.382Z,6.00
2019-03-31T09:15:47.375Z,6.50
2019-03-31T09:16:47.402Z,6.10
2019-03-31T09:17:47.343Z,6.00
2019-03-31T09:18:47.356Z,5.50
2019-03-31T09:19:47.325Z,5.20
2019-03-31T09:20:47.324Z,4.90
2019-03-31T09:21:47.313Z,6.10
2019-03-31T09:22:47.334Z,7.00
2019-03-31T09:23:47.284Z,5.60
2019-03-31T09:24:47.274Z,5.10
2019-03-31T09:25:47.826Z,6.20
2019-03-31T09:26:47.260Z,5.70
2019-03-31T09:27:47.287Z,5.40
2019-03-31T09:28:47.226Z,6.20
2019-03-31T09:29:47.225Z,7.80
2019-03-31T09:30:47.205Z,4.50
2019-03-31T09:31:47.216Z,3.70
2019-03-31T09:32:47.187Z,4.60
2019-03-31T09:33:47.211Z,3.70
2019-03-31T09:34:47.169Z,3.40
2019-03-31T09:35:47.159Z,4.10
2019-03-31T09:36:47.147Z,5.60
2019-03-31T09:37:47.147Z,4.10
2019-03-31T09:38:48.486Z,3.00
2019-03-31T09:39:47.116Z,4.40
2019-03-31T09:40:47.111Z,4.30
2019-03-31T09:41:47.086Z,6.40
2019-03-31T09:42:47.086Z,4.60
2019-03-31T09:43:47.097Z,4.50
2019-03-31T09:44:47.073Z,5.20
2019-03-31T09:45:47.050Z,3.80
2019-03-31T09:46:47.029Z,5.20
2019-03-31T09:47:47.030Z,6.00
2019-03-31T09:48:47.018Z,6.80
2019-03-31T09:49:47.092Z,5.20
2019-03-31T09:50:46.986Z,7.60
2019-03-31T09:51:46.992Z,6.60
2019-03-31T09:52:46.969Z,5.60
2019-03-31T09:53:46.973Z,4.80
2019-03-31T09:54:46.956Z,5.40
2019-03-31T09:55:46.942Z,5.60
2019-03-31T09:56:46.918Z,4.80
2019-03-31T09:57:46.909Z,2.70
2019-03-31T09:58:46.898Z,2.80
2019-03-31T09:59:46.919Z,3.90
2019-03-31T10:00:46.882Z,5.30
2019-03-31T10:01:46.871Z,4.30
2019-03-31T10:02:46.859Z,3.90
2019-03-31T10:03:46.850Z,2.60
2019-03-31T10:04:46.839Z,4.30
2019-03-31T10:05:48.138Z,3.70
2019-03-31T10:06:46.815Z,5.50
2019-03-31T10:07:46.920Z,5.40
2019-03-31T10:08:46.794Z,2.90
2019-03-31T10:09:46.781Z,3.40
2019-03-31T10:10:46.800Z,3.90
2019-03-31T10:11:46.846Z,2.80
2019-03-31T10:12:46.742Z,6.50
2019-03-31T10:13:46.731Z,3.00
2019-03-31T10:14:46.721Z,5.20
2019-03-31T10:15:46.721Z,4.70
2019-03-31T10:16:46.702Z,5.30
2019-03-31T10:17:46.745Z,5.10
2019-03-31T10:18:46.683Z,6.50
2019-03-31T10:19:46.662Z,6.60
2019-03-31T10:20:46.653Z,6.00
2019-03-31T10:21:46.642Z,6.00
2019-03-31T10:22:46.646Z,7.60
2019-03-31T10:23:46.705Z,6.20
2019-03-31T10:24:46.626Z,5.90
2019-03-31T10:25:46.603Z,5.50
2019-03-31T10:26:46.593Z,7.00
2019-03-31T10:27:46.631Z,7.40
2019-03-31T10:28:46.563Z,5.90
2019-03-31T10:29:46.595Z,8.60
2019-03-31T10:30:46.547Z,6.60
2019-03-31T10:31:46.544Z,5.20
2019-03-31T10:32:46.524Z,4.40
2019-03-31T10:33:46.514Z,8.40
2019-03-31T10:34:46.534Z,5.60
2019-03-31T10:35:46.494Z,6.60
2019-03-31T10:36:46.476Z,3.40
2019-03-31T10:37:46.474Z,5.80
2019-03-31T10:38:46.464Z,7.30
2019-03-31T10:39:46.456Z,5.00
2019-03-31T10:40:46.485Z,4.20
2019-03-31T10:41:46.424Z,2.70
2019-03-31T10:42:46.414Z,3.60
2019-03-31T10:43:46.407Z,2.60
2019-03-31T10:44:46.398Z,7.20
2019-03-31T10:45:46.389Z,3.40
2019-03-31T10:46:46.408Z,4.60
2019-03-31T10:47:46.366Z,2.80
2019-03-31T10:48:46.408Z,2.50
2019-03-31T10:49:46.347Z,5.30
2019-03-31T10:50:46.474Z,3.80
2019-03-31T10:51:46.416Z,5.80
2019-03-31T10:52:46.310Z,4.40
2019-03-31T10:53:46.307Z,4.00
2019-03-31T10:54:46.277Z,4.50
2019-03-31T10:55:46.282Z,5.60
2019-03-31T10:56:46.266Z,5.70
2019-03-31T10:57:46.307Z,6.60
2019-03-31T10:58:46.250Z,5.50
2019-03-31T10:59:46.236Z,14.50
2019-03-31T11:00:46.217Z,4.20
2019-03-31T11:01:46.218Z,7.50
2019-03-31T11:02:46.254Z,14.90
2019-03-31T11:03:46.231Z,6.00
2019-03-31T11:04:46.168Z,4.80
2019-03-31T11:05:46.158Z,4.80
2019-03-31T11:06:58.397Z,3.80
2019-03-31T11:07:47.218Z,5.80
2019-03-31T11:08:46.128Z,4.60
2019-03-31T11:09:46.118Z,6.10
2019-03-31T11:10:46.120Z,3.50
2019-03-31T11:11:46.098Z,3.60
2019-03-31T11:12:46.092Z,6.80
2019-03-31T11:13:46.128Z,5.50
2019-03-31T11:14:46.115Z,3.00
2019-03-31T11:15:46.049Z,3.00
2019-03-31T11:16:46.039Z,4.30
2019-03-31T11:17:46.030Z,3.20
2019-03-31T11:18:46.049Z,4.20
2019-03-31T11:19:46.019Z,7.60
2019-03-31T11:20:45.999Z,5.30
2019-03-31T11:21:45.989Z,5.70
2019-03-31T11:22:46.012Z,3.80
2019-03-31T11:23:45.960Z,3.00
2019-03-31T11:24:46.020Z,3.30
2019-03-31T11:25:45.940Z,3.40
2019-03-31T11:26:45.939Z,6.10
2019-03-31T11:27:45.934Z,4.70
2019-03-31T11:28:45.918Z,4.30
2019-03-31T11:29:45.902Z,4.00
2019-03-31T11:30:45.967Z,3.80
2019-03-31T11:31:45.880Z,3.70
2019-03-31T11:32:45.873Z,4.30
2019-03-31T11:33:45.861Z,6.60
2019-03-31T11:34:45.867Z,3.80
2019-03-31T11:35:45.830Z,3.70
2019-03-31T11:36:45.862Z,4.10
2019-03-31T11:37:45.811Z,3.60
2019-03-31T11:38:45.813Z,5.10
2019-03-31T11:39:45.792Z,5.30
2019-03-31T11:40:45.865Z,6.10
2019-03-31T11:41:45.824Z,3.00
2019-03-31T11:42:45.773Z,8.40
2019-03-31T11:43:45.745Z,5.80
2019-03-31T11:44:45.732Z,4.00
2019-03-31T11:45:45.722Z,8.20
2019-03-31T11:46:45.752Z,9.60
2019-03-31T11:47:45.758Z,12.00
2019-03-31T11:48:45.708Z,6.60
2019-03-31T11:49:45.682Z,6.70
2019-03-31T11:50:45.682Z,3.50
2019-03-31T11:51:45.675Z,3.70
2019-03-31T11:52:45.653Z,5.80
2019-03-31T11:53:45.767Z,4.20
2019-03-31T11:54:45.982Z,3.70
2019-03-31T11:55:45.624Z,2.90
2019-03-31T11:56:45.602Z,3.90
2019-03-31T11:57:45.688Z,5.70
2019-03-31T11:58:45.596Z,4.00
2019-03-31T11:59:45.584Z,4.00
2019-03-31T12:00:45.573Z,3.40
2019-03-31T12:01:45.556Z,4.00
2019-03-31T12:02:45.533Z,4.50
2019-03-31T12:03:45.563Z,5.30
2019-03-31T12:04:45.524Z,2.50
2019-03-31T12:05:45.570Z,2.80
2019-03-31T12:06:45.506Z,2.00
2019-03-31T12:07:46.991Z,5.60
2019-03-31T12:08:45.504Z,5.60
2019-03-31T12:09:45.472Z,4.50
2019-03-31T12:10:45.454Z,3.30
2019-03-31T12:11:45.914Z,1.50
2019-03-31T12:12:45.435Z,4.40
2019-03-31T12:13:45.455Z,4.10
2019-03-31T12:14:59.563Z,3.70
2019-03-31T12:15:46.395Z,4.70
2019-03-31T12:16:45.449Z,2.90
2019-03-31T12:17:45.385Z,3.20
2019-03-31T12:18:45.396Z,4.00
2019-03-31T12:19:48.600Z,4.60
2019-03-31T12:20:45.379Z,4.00
2019-03-31T12:21:45.335Z,4.40
2019-03-31T12:22:45.356Z,3.70
2019-03-31T12:23:45.327Z,4.10
2019-03-31T12:24:45.307Z,4.80
2019-03-31T12:25:45.290Z,4.60
2019-03-31T12:26:45.330Z,2.80
2019-03-31T12:27:45.267Z,3.40
2019-03-31T12:28:45.267Z,8.40
2019-03-31T12:29:45.248Z,6.10
2019-03-31T12:30:45.238Z,5.00
2019-03-31T12:31:45.218Z,4.80
2019-03-31T12:32:45.254Z,5.90
2019-03-31T12:33:45.208Z,5.50
2019-03-31T12:34:45.188Z,3.30
2019-03-31T12:35:45.179Z,3.00
2019-03-31T12:36:45.199Z,5.20
2019-03-31T12:37:45.159Z,1.90
2019-03-31T12:38:45.151Z,7.50
2019-03-31T12:39:45.131Z,5.60
2019-03-31T12:40:45.130Z,4.40
2019-03-31T12:41:45.120Z,3.60
2019-03-31T12:42:45.109Z,5.10
2019-03-31T12:43:45.122Z,5.70
2019-03-31T12:44:45.081Z,2.50
2019-03-31T12:45:45.071Z,3.40
2019-03-31T12:46:45.062Z,4.00
2019-03-31T12:47:45.051Z,3.70
2019-03-31T12:48:45.056Z,2.90
2019-03-31T12:49:45.036Z,4.10
2019-03-31T12:50:45.066Z,3.00
2019-03-31T12:51:45.005Z,5.40
2019-03-31T12:52:46.949Z,3.20
2019-03-31T12:53:44.989Z,4.30
2019-03-31T12:54:44.992Z,5.80
2019-03-31T12:55:59.140Z,5.10
2019-03-31T12:56:45.974Z,4.90
2019-03-31T12:57:44.934Z,7.40
2019-03-31T12:58:44.923Z,4.30
2019-03-31T12:59:44.924Z,5.20
2019-03-31T13:00:44.913Z,3.00
2019-03-31T13:01:44.907Z,1.70
2019-03-31T13:02:44.907Z,5.80